Time;durP1;ratioP1;P1;durP2;ratioP2;P2;SDS_P1;SDS_P2;PMS_P1;PMS_P2;Temp;Humidity;BMP_temperature;BMP_pressure;BME280_temperature;BME280_humidity;BME280_pressure;Samples;Min_cycle;Max_cycle;Signal;HPM_P1;HPM_P2
2022/04/24 00:02:12;;;;;;;6.30;5.90;;;11.70;99.90;;;;;;5071069;28;20185;-66
2022/04/24 00:04:39;;;;;;;6.23;5.83;;;11.70;99.90;;;;;;5070816;28;20231;-67
2022/04/24 00:07:07;;;;;;;8.37;6.10;;;11.60;99.90;;;;;;5071050;28;20564;-65
2022/04/24 00:09:34;;;;;;;6.30;5.80;;;11.70;99.90;;;;;;5070894;28;20182;-66
2022/04/24 00:12:00;;;;;;;6.20;5.80;;;11.60;99.90;;;;;;5071430;28;20185;-66
2022/04/24 00:14:27;;;;;;;6.33;5.93;;;11.60;99.90;;;;;;5070616;28;20178;-66
2022/04/24 00:16:52;;;;;;;6.43;6.00;;;11.60;99.90;;;;;;5070833;28;20178;-66
2022/04/24 00:19:19;;;;;;;6.20;5.80;;;11.70;99.90;;;;;;5071339;28;20185;-67
2022/04/24 00:21:45;;;;;;;6.60;6.10;;;11.60;99.90;;;;;;5070826;28;20352;-66
2022/04/24 00:24:11;;;;;;;8.50;6.17;;;11.60;99.90;;;;;;5070695;28;20366;-66
2022/04/24 00:26:37;;;;;;;7.27;6.50;;;11.60;99.90;;;;;;5070804;28;20194;-66
2022/04/24 00:29:03;;;;;;;7.70;6.90;;;11.60;99.90;;;;;;5069709;28;20178;-66
2022/04/24 00:31:29;;;;;;;6.03;5.60;;;11.60;99.90;;;;;;5070973;28;20231;-66
2022/04/24 00:33:54;;;;;;;6.30;5.90;;;11.50;99.90;;;;;;5071401;28;20178;-67
2022/04/24 00:36:20;;;;;;;6.13;5.70;;;11.50;99.90;;;;;;5070358;28;20202;-66
2022/04/24 00:38:45;;;;;;;6.30;5.80;;;11.40;99.90;;;;;;5070766;28;20174;-67
2022/04/24 00:41:11;;;;;;;5.80;5.40;;;11.40;99.90;;;;;;5069261;28;20676;-66
2022/04/24 00:43:36;;;;;;;6.23;5.73;;;11.40;99.90;;;;;;5070934;28;20225;-67
2022/04/24 00:46:34;;;;;;;6.70;6.20;;;11.30;99.90;;;;;;5070237;28;20198;-66
2022/04/24 00:49:00;;;;;;;6.10;5.70;;;11.30;99.90;;;;;;5060109;28;20190;-67
2022/04/24 00:51:25;;;;;;;6.10;5.70;;;11.20;99.90;;;;;;5074741;28;20175;-66
2022/04/24 00:53:52;;;;;;;6.03;5.63;;;11.20;99.90;;;;;;5073266;28;20178;-66
2022/04/24 00:56:18;;;;;;;6.23;5.63;;;11.20;99.90;;;;;;5074431;28;20542;-66
2022/04/24 00:58:45;;;;;;;6.00;5.50;;;11.20;99.90;;;;;;5074827;28;20170;-66
2022/04/24 01:01:10;;;;;;;6.60;5.90;;;11.20;99.90;;;;;;5073636;28;20174;-66
2022/04/24 01:03:38;;;;;;;6.60;6.00;;;11.10;99.90;;;;;;5074104;28;20255;-66
2022/04/24 01:06:04;;;;;;;6.47;5.87;;;11.20;99.90;;;;;;5073675;28;20193;-66
2022/04/24 01:08:30;;;;;;;6.43;6.00;;;11.20;99.90;;;;;;5074371;28;20205;-65
2022/04/24 01:10:55;;;;;;;6.33;5.83;;;11.10;99.90;;;;;;5074255;28;20178;-67
2022/04/24 01:13:21;;;;;;;8.00;5.97;;;11.10;99.90;;;;;;5074206;28;20174;-66
2022/04/24 01:15:47;;;;;;;6.37;5.90;;;11.10;99.90;;;;;;5073633;28;20461;-66
2022/04/24 01:18:13;;;;;;;6.67;6.00;;;11.10;99.90;;;;;;5073893;28;20178;-66
2022/04/24 01:20:39;;;;;;;6.57;6.07;;;11.00;99.90;;;;;;5073927;28;20217;-66
2022/04/24 01:23:04;;;;;;;6.30;5.90;;;11.00;99.90;;;;;;5074020;28;20174;-66
2022/04/24 01:25:30;;;;;;;6.30;5.90;;;10.90;99.90;;;;;;5073436;28;20198;-66
2022/04/24 01:27:55;;;;;;;6.83;6.33;;;10.90;99.90;;;;;;5074075;28;20178;-66
2022/04/24 01:30:21;;;;;;;6.93;6.43;;;10.80;99.90;;;;;;5073616;28;20660;-66
2022/04/24 01:32:46;;;;;;;6.30;5.80;;;10.80;99.90;;;;;;5074098;28;20175;-66
2022/04/24 01:35:13;;;;;;;6.93;6.33;;;10.80;99.90;;;;;;5072339;28;20198;-67
2022/04/24 01:37:43;;;;;;;7.00;6.40;;;10.80;99.90;;;;;;5074036;28;20177;-66
2022/04/24 01:40:09;;;;;;;7.13;6.63;;;10.80;99.90;;;;;;5072282;28;20185;-66
2022/04/24 01:42:35;;;;;;;6.77;6.17;;;10.80;99.90;;;;;;5073791;28;20230;-66
2022/04/24 01:45:00;;;;;;;7.07;6.57;;;10.70;99.90;;;;;;5073017;28;20746;-66
2022/04/24 01:47:26;;;;;;;6.90;6.40;;;10.70;99.90;;;;;;5073518;28;20178;-66
2022/04/24 01:49:51;;;;;;;7.40;6.73;;;10.60;99.90;;;;;;5072300;28;20178;-66
2022/04/24 01:52:17;;;;;;;7.20;6.70;;;10.60;99.90;;;;;;5072304;28;20288;-66
2022/04/24 01:54:43;;;;;;;7.03;6.53;;;10.60;99.90;;;;;;5073460;28;20620;-65
2022/04/24 01:57:08;;;;;;;6.87;6.27;;;10.60;99.90;;;;;;5073340;28;20189;-65
2022/04/24 01:59:34;;;;;;;7.27;6.57;;;10.50;99.90;;;;;;5073186;28;20673;-66
2022/04/24 02:01:59;;;;;;;7.30;6.70;;;10.50;99.90;;;;;;5070756;28;20185;-66
2022/04/24 02:04:26;;;;;;;7.20;6.60;;;10.50;99.90;;;;;;5071883;28;20221;-66
2022/04/24 02:06:51;;;;;;;7.00;6.50;;;10.40;99.90;;;;;;5071725;28;20475;-66
2022/04/24 02:09:17;;;;;;;7.17;6.57;;;10.40;99.90;;;;;;5073438;28;20257;-66
2022/04/24 02:11:43;;;;;;;6.70;6.20;;;10.30;99.90;;;;;;5072911;28;20227;-66
2022/04/24 02:14:08;;;;;;;7.67;7.03;;;10.20;99.90;;;;;;5073099;28;20178;-66
2022/04/24 02:16:34;;;;;;;7.37;6.80;;;10.20;99.90;;;;;;5071418;28;20210;-66
2022/04/24 02:19:00;;;;;;;7.77;7.17;;;10.10;99.90;;;;;;5073437;28;20235;-66
2022/04/24 02:21:27;;;;;;;7.53;6.93;;;10.10;99.90;;;;;;5072651;28;20656;-66
2022/04/24 02:23:53;;;;;;;7.60;6.87;;;10.00;99.90;;;;;;5071767;28;20347;-65
2022/04/24 02:26:19;;;;;;;8.30;7.37;;;9.90;99.90;;;;;;5072476;28;20329;-65
2022/04/24 02:28:44;;;;;;;8.20;7.60;;;9.90;99.90;;;;;;5072717;28;20178;-66
2022/04/24 02:31:10;;;;;;;7.43;7.00;;;9.80;99.90;;;;;;5072548;28;20305;-66
2022/04/24 02:33:36;;;;;;;8.00;7.40;;;9.70;99.90;;;;;;5071732;28;20543;-65
2022/04/24 02:36:01;;;;;;;7.00;6.50;;;9.60;99.90;;;;;;5071974;28;20231;-65
2022/04/24 02:38:27;;;;;;;7.17;6.67;;;9.60;99.90;;;;;;5072676;28;20679;-66
2022/04/24 02:40:54;;;;;;;7.83;7.23;;;9.50;99.90;;;;;;5072611;28;20174;-65
2022/04/24 02:43:19;;;;;;;9.20;6.50;;;9.50;99.90;;;;;;5072134;28;20178;-65
2022/04/24 02:45:45;;;;;;;7.70;7.10;;;9.50;99.90;;;;;;5072060;28;20285;-66
2022/04/24 02:48:11;;;;;;;7.30;6.73;;;9.40;99.90;;;;;;5072415;28;20170;-66
2022/04/24 02:50:39;;;;;;;7.90;7.20;;;9.40;99.90;;;;;;5072355;28;20174;-66
2022/04/24 02:53:06;;;;;;;8.37;7.67;;;9.40;99.90;;;;;;5072412;28;20166;-66
2022/04/24 02:55:31;;;;;;;8.40;7.80;;;9.30;99.90;;;;;;5071915;28;20256;-65
2022/04/24 02:57:57;;;;;;;7.63;7.00;;;9.30;99.90;;;;;;5072481;28;20194;-66
2022/04/24 03:00:25;;;;;;;7.50;6.90;;;9.20;99.90;;;;;;5071229;28;20178;-66
2022/04/24 03:02:51;;;;;;;7.40;6.90;;;9.20;99.90;;;;;;5089573;28;20170;-66
2022/04/24 03:05:22;;;;;;;8.30;7.70;;;9.20;99.90;;;;;;5090983;28;20320;-66
2022/04/24 03:07:48;;;;;;;8.20;7.50;;;9.20;99.90;;;;;;5089553;28;20174;-65
2022/04/24 03:10:16;;;;;;;8.67;7.87;;;9.20;99.90;;;;;;5081877;28;20190;-65
2022/04/24 03:12:42;;;;;;;8.90;8.00;;;9.20;99.90;;;;;;5072090;28;20166;-65
2022/04/24 03:15:10;;;;;;;9.30;8.60;;;9.20;99.90;;;;;;5070409;28;20198;-65
2022/04/24 03:17:36;;;;;;;8.53;7.73;;;9.10;99.90;;;;;;5072022;28;20186;-65
2022/04/24 03:20:04;;;;;;;8.67;8.07;;;9.10;99.90;;;;;;5071978;28;20567;-66
2022/04/24 03:22:30;;;;;;;8.57;7.90;;;9.10;99.90;;;;;;5068509;28;20170;-65
2022/04/24 03:24:57;;;;;;;8.57;7.83;;;9.10;99.90;;;;;;5071241;28;20691;-66
2022/04/24 03:27:23;;;;;;;8.50;7.80;;;9.00;99.90;;;;;;5071676;28;20181;-65
2022/04/24 03:29:49;;;;;;;9.30;8.40;;;9.00;99.90;;;;;;5070522;28;20632;-65
2022/04/24 03:32:14;;;;;;;8.60;7.90;;;9.00;99.90;;;;;;5071566;28;20589;-65
2022/04/24 03:34:40;;;;;;;8.50;7.80;;;8.90;99.90;;;;;;5070052;28;20182;-65
2022/04/24 03:37:06;;;;;;;9.50;8.80;;;8.90;99.90;;;;;;5070341;28;20213;-66
2022/04/24 03:39:32;;;;;;;10.30;8.57;;;8.80;99.90;;;;;;5071555;28;20833;-65
2022/04/24 03:41:58;;;;;;;8.57;7.87;;;8.80;99.90;;;;;;5071531;28;20308;-65
2022/04/24 03:44:24;;;;;;;9.30;8.50;;;8.70;99.90;;;;;;5071150;28;20213;-65
2022/04/24 03:46:49;;;;;;;9.70;8.80;;;8.60;99.90;;;;;;5070463;28;20296;-66
2022/04/24 03:49:16;;;;;;;9.00;8.30;;;8.60;99.90;;;;;;5071160;28;20204;-66
2022/04/24 03:51:42;;;;;;;8.87;8.07;;;8.60;99.90;;;;;;5071425;28;20170;-66
2022/04/24 03:54:07;;;;;;;9.53;8.73;;;8.60;99.90;;;;;;5071179;28;20567;-66
2022/04/24 03:56:33;;;;;;;8.97;8.23;;;8.60;99.90;;;;;;5071008;28;20202;-66
2022/04/24 03:58:59;;;;;;;9.37;8.63;;;8.50;99.90;;;;;;5071649;28;20552;-66
2022/04/24 04:01:25;;;;;;;10.53;9.70;;;8.50;99.90;;;;;;5070941;28;20182;-66
2022/04/24 04:03:51;;;;;;;10.73;9.73;;;8.50;99.90;;;;;;5071101;28;20214;-66
2022/04/24 04:06:16;;;;;;;10.53;9.63;;;8.50;99.90;;;;;;5070794;28;20495;-66
2022/04/24 04:08:42;;;;;;;10.23;9.50;;;8.40;99.90;;;;;;5071270;28;20177;-66
2022/04/24 04:11:08;;;;;;;9.90;8.47;;;8.40;99.90;;;;;;5071188;28;20182;-65
2022/04/24 04:13:34;;;;;;;9.67;8.73;;;8.40;99.90;;;;;;5071489;28;20202;-65
2022/04/24 04:16:00;;;;;;;10.17;9.17;;;8.40;99.90;;;;;;5070774;28;20202;-65
2022/04/24 04:18:26;;;;;;;9.37;8.60;;;8.30;99.90;;;;;;5070809;28;20536;-65
2022/04/24 04:20:51;;;;;;;10.53;9.53;;;8.20;99.90;;;;;;5069655;28;20185;-66
2022/04/24 04:23:17;;;;;;;11.57;10.63;;;8.20;99.90;;;;;;5069636;28;20185;-66
2022/04/24 04:25:43;;;;;;;11.33;10.33;;;8.10;99.90;;;;;;5073408;28;20197;-66
2022/04/24 04:28:08;;;;;;;10.53;9.63;;;8.10;99.90;;;;;;5075769;28;20239;-66
2022/04/24 04:30:34;;;;;;;10.43;9.53;;;8.20;99.90;;;;;;5074940;28;20243;-66
2022/04/24 04:33:00;;;;;;;10.20;9.30;;;8.20;99.90;;;;;;5074893;28;20186;-65
2022/04/24 04:35:26;;;;;;;11.13;9.63;;;8.30;99.90;;;;;;5074320;28;20208;-66
2022/04/24 04:37:52;;;;;;;11.53;9.93;;;8.40;99.90;;;;;;5074724;28;20274;-65
2022/04/24 04:40:18;;;;;;;11.03;10.13;;;8.40;99.90;;;;;;5074631;28;20178;-66
2022/04/24 04:42:45;;;;;;;11.20;10.20;;;8.40;99.90;;;;;;5075014;28;20182;-66
2022/04/24 04:45:11;;;;;;;10.77;9.87;;;8.40;99.90;;;;;;5072472;28;20274;-66
2022/04/24 04:47:37;;;;;;;11.20;10.30;;;8.50;99.90;;;;;;5072260;28;20186;-66
2022/04/24 04:50:03;;;;;;;10.97;10.07;;;8.60;99.90;;;;;;5073621;28;20658;-65
2022/04/24 04:52:29;;;;;;;10.13;9.37;;;8.70;99.90;;;;;;5074568;28;20174;-70
2022/04/24 04:54:54;;;;;;;10.60;9.70;;;8.70;99.90;;;;;;5073125;28;20208;-66
2022/04/24 04:57:20;;;;;;;9.57;8.83;;;8.80;99.90;;;;;;5072958;28;20269;-66
2022/04/24 04:59:45;;;;;;;10.53;9.63;;;8.90;99.90;;;;;;5074501;28;20174;-66
2022/04/24 05:02:11;;;;;;;10.83;9.83;;;8.90;99.90;;;;;;5073381;28;20273;-66
2022/04/24 05:04:38;;;;;;;10.30;9.47;;;9.00;99.90;;;;;;5074178;28;20204;-67
2022/04/24 05:07:04;;;;;;;10.30;9.30;;;9.10;99.90;;;;;;5074396;28;20181;-66
2022/04/24 05:09:30;;;;;;;9.50;8.67;;;9.20;99.90;;;;;;5074746;28;20174;-66
2022/04/24 05:11:55;;;;;;;10.00;9.10;;;9.40;99.90;;;;;;5072728;28;20175;-66
2022/04/24 05:14:21;;;;;;;9.60;8.80;;;9.50;99.90;;;;;;5057588;28;20271;-66
2022/04/24 05:16:46;;;;;;;9.70;8.90;;;9.50;99.90;;;;;;5073827;28;20193;-66
2022/04/24 05:19:12;;;;;;;9.90;9.03;;;9.60;99.90;;;;;;5074175;28;20209;-65
2022/04/24 05:21:37;;;;;;;9.83;9.03;;;9.60;99.90;;;;;;5074302;28;20217;-66
2022/04/24 05:24:03;;;;;;;9.20;8.47;;;9.70;99.90;;;;;;5072454;28;20202;-66
2022/04/24 05:26:29;;;;;;;10.30;9.30;;;9.80;99.90;;;;;;5073314;28;20206;-66
2022/04/24 05:28:55;;;;;;;9.60;8.80;;;9.80;99.90;;;;;;5074225;28;20265;-66
2022/04/24 05:31:20;;;;;;;9.47;8.67;;;9.90;99.90;;;;;;5073703;28;20178;-66
2022/04/24 05:33:46;;;;;;;9.90;9.10;;;9.90;99.90;;;;;;5074412;28;20170;-65
2022/04/24 05:36:12;;;;;;;10.00;9.10;;;10.00;99.90;;;;;;5071960;28;20194;-66
2022/04/24 05:38:37;;;;;;;9.63;8.80;;;10.10;99.90;;;;;;5074044;28;20661;-66
2022/04/24 05:41:03;;;;;;;10.23;9.40;;;10.20;99.90;;;;;;5072388;28;20265;-65
2022/04/24 05:43:30;;;;;;;9.70;9.00;;;10.40;99.90;;;;;;5073703;28;20194;-66
2022/04/24 05:45:56;;;;;;;10.00;9.20;;;10.50;99.90;;;;;;5073194;28;20202;-66
2022/04/24 05:48:22;;;;;;;9.83;8.93;;;10.70;99.90;;;;;;5072368;28;20602;-66
2022/04/24 05:50:48;;;;;;;10.33;9.43;;;10.90;99.90;;;;;;5073582;28;20174;-66
2022/04/24 05:53:13;;;;;;;9.60;8.80;;;11.10;99.90;;;;;;5073680;28;20544;-65
2022/04/24 05:55:39;;;;;;;10.23;9.30;;;11.20;99.90;;;;;;5073164;28;20288;-67
2022/04/24 05:58:05;;;;;;;9.87;8.97;;;11.40;99.90;;;;;;5073684;28;20174;-67
2022/04/24 06:00:30;;;;;;;10.10;9.30;;;11.60;99.90;;;;;;5071124;28;20271;-66
2022/04/24 06:02:56;;;;;;;9.63;8.80;;;11.90;99.90;;;;;;5073788;28;20231;-66
2022/04/24 06:05:22;;;;;;;9.60;8.80;;;12.10;99.90;;;;;;5071002;28;20313;-66
2022/04/24 06:07:48;;;;;;;9.30;8.50;;;12.20;99.90;;;;;;5073444;28;20185;-67
2022/04/24 06:10:14;;;;;;;8.90;8.13;;;12.40;99.90;;;;;;5072605;28;20620;-66
2022/04/24 06:12:51;;;;;;;9.40;8.60;;;12.50;99.90;;;;;;5072332;28;20176;-65
2022/04/24 06:15:20;;;;;;;9.20;8.37;;;12.70;99.90;;;;;;5072419;28;20282;-66
2022/04/24 06:17:47;;;;;;;9.77;9.00;;;12.70;99.90;;;;;;5072112;28;20266;-66
2022/04/24 06:20:13;;;;;;;9.83;9.03;;;12.70;99.90;;;;;;5072829;28;20738;-66
2022/04/24 06:22:47;;;;;;;10.53;9.63;;;12.90;99.90;;;;;;5073040;28;20375;-66
2022/04/24 06:25:32;;;;;;;9.60;8.80;;;13.00;99.90;;;;;;5083349;28;20568;-66
2022/04/24 06:27:59;;;;;;;9.43;8.63;;;13.20;99.90;;;;;;5072358;28;20551;-66
2022/04/24 06:30:27;;;;;;;12.00;11.10;;;13.30;99.90;;;;;;5070941;28;20166;-66
2022/04/24 06:32:53;;;;;;;9.43;8.53;;;13.70;99.90;;;;;;5073035;28;20201;-66
2022/04/24 06:35:19;;;;;;;8.93;7.63;;;14.00;99.90;;;;;;5072109;28;20225;-67
2022/04/24 06:37:47;;;;;;;9.40;8.70;;;14.10;99.90;;;;;;5072715;28;20182;-66
2022/04/24 06:40:14;;;;;;;9.50;8.70;;;14.20;99.90;;;;;;5071096;28;20206;-66
2022/04/24 06:43:06;;;;;;;9.73;8.93;;;14.10;99.90;;;;;;5072571;28;20184;-65
2022/04/24 06:45:32;;;;;;;10.17;9.27;;;14.10;99.90;;;;;;5071564;28;20229;-66
2022/04/24 06:48:00;;;;;;;9.67;8.70;;;14.20;99.90;;;;;;5070504;28;20178;-65
2022/04/24 06:50:27;;;;;;;10.33;9.47;;;14.40;99.90;;;;;;5072191;28;20235;-66
2022/04/24 06:52:57;;;;;;;11.80;10.90;;;14.50;99.90;;;;;;5072295;28;20166;-66
2022/04/24 06:55:23;;;;;;;10.97;10.17;;;14.60;99.90;;;;;;5071591;28;20198;-65
2022/04/24 06:57:51;;;;;;;11.83;10.73;;;14.60;99.90;;;;;;5070768;28;20182;-65
2022/04/24 07:00:17;;;;;;;9.70;9.00;;;14.50;99.90;;;;;;5071997;28;20162;-65
2022/04/24 07:02:43;;;;;;;10.13;9.13;;;14.50;99.90;;;;;;5070869;28;20182;-66
2022/04/24 07:05:08;;;;;;;9.40;8.53;;;14.50;99.90;;;;;;5071280;28;20634;-67
2022/04/24 07:07:34;;;;;;;9.80;8.90;;;14.70;99.90;;;;;;5065088;28;20174;-68
2022/04/24 07:10:00;;;;;;;8.93;8.13;;;15.00;99.90;;;;;;5087660;28;20392;-67
2022/04/24 07:12:25;;;;;;;8.87;8.17;;;15.50;99.90;;;;;;5092203;28;20182;-65
2022/04/24 07:14:51;;;;;;;8.77;8.07;;;15.70;99.90;;;;;;5082307;28;20198;-65
2022/04/24 07:17:18;;;;;;;8.87;8.07;;;15.60;99.90;;;;;;5072732;28;20635;-64
2022/04/24 07:19:43;;;;;;;9.47;8.67;;;15.50;99.90;;;;;;5072697;28;20170;-66
2022/04/24 07:22:09;;;;;;;8.80;8.00;;;15.80;99.90;;;;;;5073579;28;20185;-66
2022/04/24 07:24:35;;;;;;;11.50;8.90;;;16.00;99.90;;;;;;5072259;28;20194;-66
2022/04/24 07:27:00;;;;;;;9.50;8.53;;;16.00;99.90;;;;;;5070813;28;20643;-66
2022/04/24 07:29:26;;;;;;;8.57;7.87;;;16.00;99.90;;;;;;5071797;28;20285;-65
2022/04/24 07:31:53;;;;;;;9.13;8.33;;;16.20;99.90;;;;;;5070686;28;20169;-66
2022/04/24 07:34:19;;;;;;;8.97;8.17;;;16.50;99.90;;;;;;5070918;28;20204;-66
2022/04/24 07:36:44;;;;;;;8.30;7.60;;;16.90;99.90;;;;;;5070277;28;20220;-67
2022/04/24 07:39:10;;;;;;;8.80;8.10;;;17.10;99.90;;;;;;5071981;28;20182;-65
2022/04/24 07:41:36;;;;;;;8.83;8.07;;;17.10;99.90;;;;;;5071687;28;20181;-65
2022/04/24 07:44:02;;;;;;;8.87;8.17;;;16.80;99.90;;;;;;5071482;28;20202;-66
2022/04/24 07:46:28;;;;;;;9.20;8.30;;;16.70;99.90;;;;;;5069913;28;20197;-65
2022/04/24 07:48:53;;;;;;;8.70;8.00;;;16.60;99.90;;;;;;5072140;28;20162;-66
2022/04/24 07:51:19;;;;;;;9.47;8.67;;;16.50;99.90;;;;;;5071842;28;20177;-66
2022/04/24 07:53:44;;;;;;;8.30;7.60;;;16.60;99.90;;;;;;5070438;28;20632;-65
2022/04/24 07:56:10;;;;;;;8.40;7.70;;;16.70;99.90;;;;;;5070782;28;20196;-67
2022/04/24 07:58:36;;;;;;;8.83;8.03;;;17.10;99.90;;;;;;5071808;28;20220;-66
2022/04/24 08:01:02;;;;;;;8.77;8.00;;;17.30;99.90;;;;;;5070221;28;20667;-67
2022/04/24 08:03:27;;;;;;;7.90;7.30;;;17.50;99.90;;;;;;5069774;28;20186;-66
2022/04/24 08:05:53;;;;;;;7.60;6.90;;;17.90;99.90;;;;;;5070904;28;20198;-67
2022/04/24 08:08:25;;;;;;;8.37;7.57;;;18.60;99.90;;;;;;5071673;28;20606;-66
2022/04/24 08:10:55;;;;;;;8.27;7.60;;;18.80;99.90;;;;;;5055538;28;20209;-67
2022/04/24 08:13:22;;;;;;;9.07;8.27;;;18.80;99.90;;;;;;5072150;28;20692;-67
2022/04/24 08:15:48;;;;;;;9.00;8.20;;;18.80;99.90;;;;;;5076123;28;20201;-67
2022/04/24 08:18:15;;;;;;;8.80;8.07;;;18.60;99.90;;;;;;5084507;28;20174;-66
2022/04/24 08:20:42;;;;;;;8.80;8.00;;;18.40;99.90;;;;;;5081769;28;20170;-67
2022/04/24 08:23:09;;;;;;;8.48;7.78;;;18.60;99.90;;;;;;5078890;28;20231;-67
2022/04/24 08:25:36;;;;;;;8.50;7.70;;;18.60;99.90;;;;;;5081856;28;20748;-67
2022/04/24 08:28:07;;;;;;;8.43;7.70;;;18.20;99.90;;;;;;5082758;28;20170;-66
2022/04/24 08:30:34;;;;;;;8.77;7.97;;;17.90;99.90;;;;;;5081066;28;20178;-66
2022/04/24 08:33:00;;;;;;;8.67;7.87;;;18.00;99.90;;;;;;5082646;28;20208;-67
2022/04/24 08:35:26;;;;;;;8.88;8.18;;;18.70;99.90;;;;;;5071213;28;20202;-67
2022/04/24 08:37:52;;;;;;;7.90;7.20;;;19.50;99.90;;;;;;5070843;28;20691;-67
2022/04/24 08:40:18;;;;;;;10.07;7.30;;;20.10;99.90;;;;;;5069281;28;20178;-67
2022/04/24 08:42:44;;;;;;;7.90;7.22;;;20.50;99.90;;;;;;5069101;28;20184;-67
2022/04/24 08:45:12;;;;;;;7.70;6.95;;;20.60;99.90;;;;;;5068712;28;20201;-67
2022/04/24 08:47:38;;;;;;;7.78;7.13;;;20.80;99.90;;;;;;5070561;28;20223;-67
2022/04/24 08:50:04;;;;;;;8.50;7.80;;;20.90;99.90;;;;;;5070604;28;20174;-68
2022/04/24 08:52:31;;;;;;;9.53;8.63;;;19.90;99.90;;;;;;5070476;28;20232;-67
2022/04/24 08:54:58;;;;;;;9.37;8.57;;;18.90;99.90;;;;;;5070890;28;20268;-67
2022/04/24 08:57:30;;;;;;;9.20;8.30;;;18.50;99.90;;;;;;5070210;28;20177;-67
2022/04/24 08:59:56;;;;;;;8.27;7.57;;;18.20;99.90;;;;;;5070591;28;20762;-66
2022/04/24 09:02:23;;;;;;;8.73;8.03;;;18.00;99.90;;;;;;5069225;28;20201;-66
2022/04/24 09:04:49;;;;;;;9.60;8.67;;;17.90;99.90;;;;;;5070056;28;20322;-66
2022/04/24 09:07:18;;;;;;;8.80;8.00;;;18.00;99.90;;;;;;5070139;28;20180;-67
2022/04/24 09:09:49;;;;;;;8.43;7.73;;;18.20;99.90;;;;;;5050884;28;20171;-67
2022/04/24 09:12:24;;;;;;;9.10;8.20;;;18.70;99.90;;;;;;5068292;28;20570;-66
2022/04/24 09:14:54;;;;;;;9.27;8.37;;;18.80;99.90;;;;;;5073611;28;20296;-67
2022/04/24 09:17:22;;;;;;;9.87;8.90;;;19.20;99.90;;;;;;5072623;28;20528;-68
2022/04/24 09:19:49;;;;;;;9.33;8.53;;;19.10;99.90;;;;;;5074016;28;20574;-68
2022/04/24 09:22:15;;;;;;;9.73;8.83;;;18.90;99.90;;;;;;5073775;28;20604;-66
2022/04/24 09:24:59;;;;;;;9.00;8.20;;;18.70;99.90;;;;;;5070689;28;20209;-67
2022/04/24 09:27:35;;;;;;;9.57;8.77;;;18.80;99.90;;;;;;5073628;28;20200;-66
2022/04/24 09:30:13;;;;;;;8.70;7.80;;;19.10;99.90;;;;;;5073526;28;20256;-67
2022/04/24 09:32:53;;;;;;;9.00;8.10;;;19.10;99.90;;;;;;5073896;28;20705;-66
2022/04/24 09:35:36;;;;;;;8.47;7.70;;;19.30;99.90;;;;;;5073145;28;20189;-66
2022/04/24 09:38:13;;;;;;;8.67;7.93;;;19.50;99.90;;;;;;5073410;28;20189;-67
2022/04/24 09:40:40;;;;;;;8.85;8.05;;;19.50;99.90;;;;;;5073496;28;20182;-67
2022/04/24 09:43:11;;;;;;;8.93;8.13;;;19.50;99.90;;;;;;5073516;28;20557;-68
2022/04/24 09:45:38;;;;;;;8.77;8.07;;;19.50;99.90;;;;;;5073817;28;20351;-67
2022/04/24 09:48:15;;;;;;;9.47;8.07;;;19.60;99.90;;;;;;5072317;28;20215;-67
2022/04/24 09:50:42;;;;;;;8.50;7.63;;;19.70;99.90;;;;;;5073640;28;20173;-67
2022/04/24 09:53:13;;;;;;;8.50;7.65;;;20.00;99.90;;;;;;5073420;28;20174;-67
2022/04/24 09:55:41;;;;;;;8.95;7.85;;;20.30;99.90;;;;;;5071495;28;20206;-67
2022/04/24 09:58:11;;;;;;;8.50;7.70;;;20.60;99.90;;;;;;5072993;28;20182;-67
2022/04/24 10:00:37;;;;;;;8.30;7.50;;;21.00;99.90;;;;;;5072734;28;20579;-67
2022/04/24 10:03:03;;;;;;;8.15;7.35;;;21.40;99.90;;;;;;5073214;28;20181;-67
2022/04/24 10:05:32;;;;;;;7.88;7.13;;;21.60;99.90;;;;;;5072646;28;20221;-67
2022/04/24 10:08:01;;;;;;;8.25;7.45;;;21.80;99.90;;;;;;5052037;28;20175;-67
2022/04/24 10:10:27;;;;;;;8.25;7.55;;;21.60;99.90;;;;;;5053184;28;20518;-67
2022/04/24 10:12:53;;;;;;;7.90;7.28;;;21.80;99.90;;;;;;5072918;28;20253;-67
2022/04/24 10:15:21;;;;;;;8.43;7.63;;;22.00;99.90;;;;;;5072576;28;20559;-67
2022/04/24 10:18:33;;;;;;;7.85;6.82;;;21.90;99.90;;;;;;5053231;28;20175;-67
2022/04/24 10:21:44;;;;;;;8.82;8.10;;;22.00;99.90;;;;;;4973988;28;20550;-67
2022/04/24 10:24:11;;;;;;;8.77;8.02;;;22.00;99.90;;;;;;5020832;28;20686;-67
2022/04/24 10:26:37;;;;;;;8.60;7.80;;;21.70;99.90;;;;;;5066731;28;20237;-67
2022/04/24 10:29:08;;;;;;;8.20;7.40;;;21.60;99.90;;;;;;5088108;28;20209;-67
2022/04/24 10:31:45;;;;;;;8.38;7.57;;;21.90;99.90;;;;;;5076941;28;20178;-67
2022/04/24 10:34:11;;;;;;;9.80;8.50;;;22.10;99.90;;;;;;5071965;28;20186;-67
2022/04/24 10:36:37;;;;;;;8.38;7.57;;;21.70;99.90;;;;;;5072349;28;20683;-67
2022/04/24 10:39:16;;;;;;;8.35;7.65;;;21.90;99.90;;;;;;5072418;28;20640;-67
2022/04/24 10:42:14;;;;;;;8.25;7.40;;;22.30;99.90;;;;;;5072906;28;20182;-67
2022/04/24 10:44:55;;;;;;;9.10;6.97;;;22.60;99.90;;;;;;5071870;28;20198;-67
2022/04/24 10:47:20;;;;;;;7.85;7.15;;;22.70;99.90;;;;;;5072055;28;20772;-67
2022/04/24 10:49:46;;;;;;;8.85;8.05;;;22.90;99.90;;;;;;5071414;28;20182;-68
2022/04/24 10:52:12;;;;;;;8.75;7.82;;;22.70;99.90;;;;;;5071980;28;20249;-67
2022/04/24 10:54:39;;;;;;;8.63;7.82;;;21.90;99.90;;;;;;5071871;28;20182;-67
2022/04/24 10:57:20;;;;;;;7.90;7.10;;;21.60;99.90;;;;;;5072280;28;20181;-67
2022/04/24 10:59:48;;;;;;;9.15;8.25;;;21.90;99.90;;;;;;5071613;28;20178;-68
2022/04/24 11:02:19;;;;;;;8.10;7.32;;;22.10;99.90;;;;;;5068085;28;20178;-67
2022/04/24 11:04:44;;;;;;;8.57;7.78;;;22.20;99.90;;;;;;5071404;28;20208;-67
2022/04/24 11:07:21;;;;;;;7.63;6.93;;;21.90;99.90;;;;;;5071759;28;20178;-67
2022/04/24 11:09:46;;;;;;;8.30;7.60;;;21.80;99.90;;;;;;5071122;28;20545;-67
2022/04/24 11:12:12;;;;;;;8.73;7.60;;;22.00;99.90;;;;;;5071474;28;20269;-67
2022/04/24 11:14:38;;;;;;;7.90;7.20;;;22.20;99.90;;;;;;5071440;28;20182;-68
2022/04/24 11:17:06;;;;;;;8.27;7.53;;;22.50;99.90;;;;;;5071609;28;20178;-67
2022/04/24 11:19:39;;;;;;;8.05;7.28;;;22.50;99.90;;;;;;5070545;28;20598;-67
2022/04/24 11:22:11;;;;;;;8.95;8.05;;;22.30;99.90;;;;;;5072755;28;20178;-67
2022/04/24 11:24:38;;;;;;;7.80;7.10;;;22.30;99.90;;;;;;5085300;28;20209;-68
2022/04/24 11:27:13;;;;;;;7.97;7.28;;;22.10;99.90;;;;;;5085128;28;20174;-68
2022/04/24 11:29:43;;;;;;;8.27;7.45;;;21.90;99.90;;;;;;5085533;28;20181;-68
2022/04/24 11:32:09;;;;;;;8.40;7.63;;;22.10;99.90;;;;;;5075422;28;20182;-67
2022/04/24 11:34:36;;;;;;;8.43;7.72;;;22.20;99.90;;;;;;5072635;28;20188;-65
2022/04/24 11:37:04;;;;;;;8.23;7.43;;;22.40;99.90;;;;;;5072823;28;20670;-64
2022/04/24 11:39:30;;;;;;;8.07;7.25;;;22.30;99.90;;;;;;5068967;28;20182;-65
2022/04/24 11:41:58;;;;;;;8.65;7.63;;;22.10;99.90;;;;;;5070132;28;20178;-66
2022/04/24 11:50:14;;;;;;;8.30;7.50;;;21.40;99.70;;;;;;5071544;28;20181;-66
2022/04/24 11:52:44;;;;;;;8.50;7.63;;;21.50;99.90;;;;;;5070291;28;20172;-67
2022/04/24 11:58:15;;;;;;;8.88;7.43;;;22.20;99.90;;;;;;5071156;28;20227;-66
2022/04/24 12:00:42;;;;;;;8.80;7.90;;;22.00;99.20;;;;;;5071435;28;20186;-66
2022/04/24 12:03:08;;;;;;;7.97;7.22;;;21.90;99.90;;;;;;5071402;28;20171;-67
2022/04/24 12:05:34;;;;;;;9.90;7.40;;;22.50;99.90;;;;;;5069610;28;20216;-66
2022/04/24 12:08:01;;;;;;;7.78;7.07;;;22.90;99.60;;;;;;5070317;28;20177;-65
2022/04/24 12:10:27;;;;;;;7.65;7.05;;;23.10;98.40;;;;;;5070366;28;20178;-66
2022/04/24 12:12:54;;;;;;;8.27;7.47;;;22.50;97.30;;;;;;5071219;28;20239;-66
2022/04/24 12:15:22;;;;;;;7.88;7.25;;;21.90;98.80;;;;;;5070827;28;20196;-66
2022/04/24 12:17:56;;;;;;;8.10;7.40;;;22.00;99.10;;;;;;5070831;28;20200;-65
2022/04/24 12:20:34;;;;;;;7.75;7.05;;;22.20;97.50;;;;;;5071106;28;20738;-66
2022/04/24 12:23:17;;;;;;;8.20;7.50;;;21.70;98.10;;;;;;5070974;28;20181;-65
2022/04/24 12:25:47;;;;;;;7.60;6.90;;;21.50;99.90;;;;;;5070829;28;20240;-65
2022/04/24 12:28:41;;;;;;;7.65;6.95;;;22.00;99.80;;;;;;5069366;28;20198;-65
2022/04/24 12:31:19;;;;;;;7.32;6.70;;;22.50;97.70;;;;;;5069794;28;20166;-66
2022/04/24 12:33:46;;;;;;;7.38;6.88;;;22.50;99.50;;;;;;5070848;28;20663;-66
2022/04/24 12:36:13;;;;;;;7.65;6.93;;;22.20;96.60;;;;;;5069187;28;20194;-65
2022/04/24 12:38:59;;;;;;;7.22;6.63;;;21.60;98.80;;;;;;5069721;28;20190;-66
2022/04/24 12:41:27;;;;;;;8.40;7.10;;;21.40;97.30;;;;;;5071386;28;20174;-66
2022/04/24 12:43:57;;;;;;;7.22;6.53;;;21.60;98.50;;;;;;5070748;28;20289;-66
2022/04/24 12:46:23;;;;;;;7.40;6.80;;;21.80;97.60;;;;;;5071418;28;20236;-66
2022/04/24 12:48:51;;;;;;;7.72;7.00;;;21.70;96.50;;;;;;5074569;28;20209;-66
2022/04/24 12:51:17;;;;;;;7.68;6.97;;;21.40;97.40;;;;;;5074639;28;20514;-65
2022/04/24 12:53:43;;;;;;;8.00;7.30;;;21.20;98.90;;;;;;5074945;28;20166;-65
2022/04/24 12:56:09;;;;;;;7.80;7.10;;;20.70;96.70;;;;;;5073939;28;20219;-65
2022/04/24 12:58:35;;;;;;;8.20;7.40;;;20.50;99.30;;;;;;5074884;28;20640;-65
2022/04/24 13:01:01;;;;;;;8.60;7.75;;;20.60;98.20;;;;;;5073226;28;20170;-65